sensor_id;sensor_type;location;lat;lon;timestamp;pressure;altitude;pressure_sealevel;temperature;humidity
61697;BME280;47610;52.252;20.922;2023-02-15T00:00:36;102000.89;;;3.66;100.00
61697;BME280;47610;52.252;20.922;2023-02-15T00:05:39;102004.23;;;3.66;100.00
61697;BME280;47610;52.252;20.922;2023-02-15T00:10:42;102007.66;;;3.68;100.00
61697;BME280;47610;52.252;20.922;2023-02-15T00:22:47;101998.73;;;3.71;100.00
61697;BME280;47610;52.252;20.922;2023-02-15T00:27:51;101996.60;;;3.68;100.00
61697;BME280;47610;52.252;20.922;2023-02-15T00:32:54;101992.86;;;3.67;100.00
61697;BME280;47610;52.252;20.922;2023-02-15T00:38:00;101986.76;;;3.68;100.00
61697;BME280;47610;52.252;20.922;2023-02-15T00:43:05;101977.95;;;3.69;100.00
61697;BME280;47610;52.252;20.922;2023-02-15T00:48:08;101979.13;;;3.76;100.00
61697;BME280;47610;52.252;20.922;2023-02-15T00:53:11;101974.63;;;3.77;100.00
61697;BME280;47610;52.252;20.922;2023-02-15T00:58:17;101974.13;;;3.78;100.00
61697;BME280;47610;52.252;20.922;2023-02-15T01:03:23;101975.33;;;3.80;100.00
61697;BME280;47610;52.252;20.922;2023-02-15T01:08:28;101967.66;;;3.80;100.00
61697;BME280;47610;52.252;20.922;2023-02-15T01:13:36;101963.38;;;3.83;100.00
61697;BME280;47610;52.252;20.922;2023-02-15T01:18:39;101958.33;;;3.85;100.00
61697;BME280;47610;52.252;20.922;2023-02-15T01:23:44;101952.02;;;3.88;100.00
61697;BME280;47610;52.252;20.922;2023-02-15T01:28:49;101954.39;;;3.89;100.00
61697;BME280;47610;52.252;20.922;2023-02-15T01:33:50;101949.54;;;3.89;100.00
61697;BME280;47610;52.252;20.922;2023-02-15T01:38:54;101943.49;;;3.89;100.00
61697;BME280;47610;52.252;20.922;2023-02-15T01:44:00;101938.33;;;3.89;100.00
61697;BME280;47610;52.252;20.922;2023-02-15T01:49:13;101940.89;;;3.88;100.00
61697;BME280;47610;52.252;20.922;2023-02-15T01:54:23;101942.11;;;3.89;100.00
61697;BME280;47610;52.252;20.922;2023-02-15T01:59:32;101944.52;;;3.91;100.00
61697;BME280;47610;52.252;20.922;2023-02-15T02:04:44;101936.71;;;3.90;100.00
61697;BME280;47610;52.252;20.922;2023-02-15T02:09:51;101930.45;;;3.85;100.00
61697;BME280;47610;52.252;20.922;2023-02-15T02:14:56;101929.05;;;3.83;100.00
61697;BME280;47610;52.252;20.922;2023-02-15T02:20:21;101924.14;;;3.81;100.00
61697;BME280;47610;52.252;20.922;2023-02-15T02:26:03;101920.83;;;3.79;100.00
61697;BME280;47610;52.252;20.922;2023-02-15T02:31:17;101917.52;;;3.78;100.00
61697;BME280;47610;52.252;20.922;2023-02-15T02:43:31;101905.56;;;3.82;100.00
61697;BME280;47610;52.252;20.922;2023-02-15T02:48:39;101909.86;;;3.79;100.00
61697;BME280;47610;52.252;20.922;2023-02-15T02:53:46;101906.40;;;3.81;100.00
61697;BME280;47610;52.252;20.922;2023-02-15T02:58:59;101907.13;;;3.82;100.00
61697;BME280;47610;52.252;20.922;2023-02-15T03:04:09;101904.00;;;3.84;100.00
61697;BME280;47610;52.252;20.922;2023-02-15T03:09:21;101903.75;;;3.82;100.00
61697;BME280;47610;52.252;20.922;2023-02-15T03:14:27;101902.65;;;3.79;100.00
61697;BME280;47610;52.252;20.922;2023-02-15T03:19:33;101900.04;;;3.78;100.00
61697;BME280;47610;52.252;20.922;2023-02-15T03:24:41;101899.35;;;3.76;100.00
61697;BME280;47610;52.252;20.922;2023-02-15T03:29:50;101896.80;;;3.74;100.00
61697;BME280;47610;52.252;20.922;2023-02-15T03:34:56;101899.50;;;3.70;100.00
61697;BME280;47610;52.252;20.922;2023-02-15T03:40:03;101903.92;;;3.69;100.00
61697;BME280;47610;52.252;20.922;2023-02-15T03:45:15;101905.06;;;3.69;100.00
61697;BME280;47610;52.252;20.922;2023-02-15T03:50:28;101902.95;;;3.71;100.00
61697;BME280;47610;52.252;20.922;2023-02-15T03:55:36;101893.34;;;3.70;100.00
61697;BME280;47610;52.252;20.922;2023-02-15T04:00:47;101891.54;;;3.70;100.00
61697;BME280;47610;52.252;20.922;2023-02-15T04:05:56;101886.01;;;3.74;100.00
61697;BME280;47610;52.252;20.922;2023-02-15T04:11:00;101885.84;;;3.76;100.00
61697;BME280;47610;52.252;20.922;2023-02-15T04:16:05;101886.86;;;3.76;100.00
61697;BME280;47610;52.252;20.922;2023-02-15T04:21:10;101884.31;;;3.76;100.00
61697;BME280;47610;52.252;20.922;2023-02-15T04:26:13;101884.62;;;3.75;100.00
61697;BME280;47610;52.252;20.922;2023-02-15T04:31:16;101885.27;;;3.76;100.00
61697;BME280;47610;52.252;20.922;2023-02-15T04:36:20;101882.77;;;3.77;100.00
61697;BME280;47610;52.252;20.922;2023-02-15T04:41:25;101883.19;;;3.78;100.00
61697;BME280;47610;52.252;20.922;2023-02-15T04:46:29;101882.38;;;3.77;100.00
61697;BME280;47610;52.252;20.922;2023-02-15T04:51:34;101882.63;;;3.77;100.00
61697;BME280;47610;52.252;20.922;2023-02-15T05:05:13;101876.94;;;3.72;100.00
61697;BME280;47610;52.252;20.922;2023-02-15T05:10:18;101887.84;;;3.69;100.00
61697;BME280;47610;52.252;20.922;2023-02-15T05:15:22;101889.86;;;3.66;100.00
61697;BME280;47610;52.252;20.922;2023-02-15T05:20:25;101896.51;;;3.65;100.00
61697;BME280;47610;52.252;20.922;2023-02-15T05:25:30;101902.63;;;3.65;100.00
61697;BME280;47610;52.252;20.922;2023-02-15T05:30:32;101908.56;;;3.63;100.00
61697;BME280;47610;52.252;20.922;2023-02-15T05:35:39;101906.25;;;3.63;100.00
61697;BME280;47610;52.252;20.922;2023-02-15T05:40:43;101904.38;;;3.61;100.00
61697;BME280;47610;52.252;20.922;2023-02-15T05:45:48;101902.81;;;3.60;100.00
61697;BME280;47610;52.252;20.922;2023-02-15T05:51:00;101893.42;;;3.58;100.00
61697;BME280;47610;52.252;20.922;2023-02-15T05:56:07;101899.45;;;3.58;100.00
61697;BME280;47610;52.252;20.922;2023-02-15T06:01:14;101902.52;;;3.55;100.00
61697;BME280;47610;52.252;20.922;2023-02-15T06:06:18;101905.70;;;3.52;100.00
61697;BME280;47610;52.252;20.922;2023-02-15T06:11:22;101904.91;;;3.49;100.00
61697;BME280;47610;52.252;20.922;2023-02-15T06:16:25;101902.54;;;3.49;100.00
61697;BME280;47610;52.252;20.922;2023-02-15T06:21:30;101904.52;;;3.47;100.00
61697;BME280;47610;52.252;20.922;2023-02-15T06:26:34;101905.27;;;3.45;100.00
61697;BME280;47610;52.252;20.922;2023-02-15T06:31:37;101908.10;;;3.45;100.00
61697;BME280;47610;52.252;20.922;2023-02-15T06:36:41;101911.00;;;3.47;100.00
61697;BME280;47610;52.252;20.922;2023-02-15T06:41:45;101908.27;;;3.47;100.00
61697;BME280;47610;52.252;20.922;2023-02-15T06:46:48;101914.44;;;3.47;100.00
61697;BME280;47610;52.252;20.922;2023-02-15T06:51:53;101911.66;;;3.46;100.00
61697;BME280;47610;52.252;20.922;2023-02-15T06:56:55;101908.16;;;3.44;100.00
61697;BME280;47610;52.252;20.922;2023-02-15T07:01:59;101909.79;;;3.44;100.00
61697;BME280;47610;52.252;20.922;2023-02-15T07:07:07;101907.52;;;3.46;100.00
61697;BME280;47610;52.252;20.922;2023-02-15T07:12:12;101912.38;;;3.46;100.00
61697;BME280;47610;52.252;20.922;2023-02-15T07:24:06;101904.23;;;3.55;100.00
61697;BME280;47610;52.252;20.922;2023-02-15T07:29:10;101902.63;;;3.54;100.00
61697;BME280;47610;52.252;20.922;2023-02-15T07:34:15;101899.80;;;3.53;100.00
61697;BME280;47610;52.252;20.922;2023-02-15T07:39:18;101892.51;;;3.55;100.00
61697;BME280;47610;52.252;20.922;2023-02-15T07:44:26;101892.02;;;3.61;100.00
61697;BME280;47610;52.252;20.922;2023-02-15T07:49:29;101888.72;;;3.61;100.00
61697;BME280;47610;52.252;20.922;2023-02-15T07:54:35;101891.17;;;3.63;100.00
61697;BME280;47610;52.252;20.922;2023-02-15T07:59:40;101889.71;;;3.65;100.00
61697;BME280;47610;52.252;20.922;2023-02-15T08:04:45;101887.78;;;3.64;100.00
61697;BME280;47610;52.252;20.922;2023-02-15T08:09:49;101887.40;;;3.63;100.00
61697;BME280;47610;52.252;20.922;2023-02-15T08:14:55;101881.48;;;3.62;100.00
61697;BME280;47610;52.252;20.922;2023-02-15T08:19:59;101877.20;;;3.65;100.00
61697;BME280;47610;52.252;20.922;2023-02-15T08:25:07;101874.89;;;3.66;100.00
61697;BME280;47610;52.252;20.922;2023-02-15T08:30:16;101873.98;;;3.65;100.00
61697;BME280;47610;52.252;20.922;2023-02-15T08:35:21;101873.30;;;3.64;100.00
61697;BME280;47610;52.252;20.922;2023-02-15T08:40:25;101869.81;;;3.64;100.00
61697;BME280;47610;52.252;20.922;2023-02-15T08:45:29;101874.09;;;3.61;100.00
61697;BME280;47610;52.252;20.922;2023-02-15T08:50:33;101863.70;;;3.54;100.00
61697;BME280;47610;52.252;20.922;2023-02-15T08:55:36;101859.41;;;3.50;100.00
61697;BME280;47610;52.252;20.922;2023-02-15T09:00:42;101850.80;;;3.48;100.00
61697;BME280;47610;52.252;20.922;2023-02-15T09:05:45;101852.33;;;3.47;100.00
61697;BME280;47610;52.252;20.922;2023-02-15T09:10:49;101848.62;;;3.48;100.00
61697;BME280;47610;52.252;20.922;2023-02-15T09:16:01;101848.70;;;3.49;100.00
61697;BME280;47610;52.252;20.922;2023-02-15T09:21:14;101840.55;;;3.50;100.00
61697;BME280;47610;52.252;20.922;2023-02-15T09:26:21;101835.98;;;3.53;100.00
61697;BME280;47610;52.252;20.922;2023-02-15T09:31:24;101839.95;;;3.56;100.00
61697;BME280;47610;52.252;20.922;2023-02-15T09:44:01;101836.31;;;3.54;100.00
61697;BME280;47610;52.252;20.922;2023-02-15T09:49:16;101833.87;;;3.48;100.00
61697;BME280;47610;52.252;20.922;2023-02-15T09:54:42;101832.69;;;3.43;100.00
61697;BME280;47610;52.252;20.922;2023-02-15T09:59:56;101828.34;;;3.48;100.00
61697;BME280;47610;52.252;20.922;2023-02-15T10:05:18;101824.58;;;3.53;100.00
61697;BME280;47610;52.252;20.922;2023-02-15T10:10:33;101821.77;;;3.61;100.00
61697;BME280;47610;52.252;20.922;2023-02-15T10:15:59;101820.64;;;3.65;100.00
61697;BME280;47610;52.252;20.922;2023-02-15T10:21:10;101813.57;;;3.57;100.00
61697;BME280;47610;52.252;20.922;2023-02-15T10:26:18;101807.50;;;3.46;100.00
61697;BME280;47610;52.252;20.922;2023-02-15T10:31:32;101803.27;;;3.45;100.00
61697;BME280;47610;52.252;20.922;2023-02-15T10:36:52;101801.07;;;3.43;100.00
61697;BME280;47610;52.252;20.922;2023-02-15T10:42:04;101794.64;;;3.50;100.00
61697;BME280;47610;52.252;20.922;2023-02-15T10:47:26;101796.27;;;3.50;100.00
61697;BME280;47610;52.252;20.922;2023-02-15T10:52:45;101787.77;;;3.42;100.00
61697;BME280;47610;52.252;20.922;2023-02-15T10:57:59;101781.98;;;3.40;100.00
61697;BME280;47610;52.252;20.922;2023-02-15T11:03:38;101778.23;;;3.39;100.00
61697;BME280;47610;52.252;20.922;2023-02-15T11:08:49;101772.01;;;3.35;100.00
61697;BME280;47610;52.252;20.922;2023-02-15T11:13:56;101768.80;;;3.38;100.00
61697;BME280;47610;52.252;20.922;2023-02-15T11:19:08;101765.95;;;3.46;100.00
61697;BME280;47610;52.252;20.922;2023-02-15T11:24:16;101763.66;;;3.52;100.00
61697;BME280;47610;52.252;20.922;2023-02-15T11:29:25;101762.09;;;3.63;100.00
61697;BME280;47610;52.252;20.922;2023-02-15T11:34:38;101753.60;;;3.70;100.00
61697;BME280;47610;52.252;20.922;2023-02-15T11:39:44;101758.59;;;3.75;100.00
61697;BME280;47610;52.252;20.922;2023-02-15T11:44:56;101759.09;;;3.74;100.00
61697;BME280;47610;52.252;20.922;2023-02-15T11:50:02;101754.91;;;3.73;100.00
61697;BME280;47610;52.252;20.922;2023-02-15T12:04:08;101742.13;;;3.52;100.00
61697;BME280;47610;52.252;20.922;2023-02-15T12:09:16;101733.22;;;3.58;100.00
61697;BME280;47610;52.252;20.922;2023-02-15T12:14:21;101727.86;;;3.63;100.00
61697;BME280;47610;52.252;20.922;2023-02-15T12:19:32;101722.88;;;3.58;100.00
61697;BME280;47610;52.252;20.922;2023-02-15T12:24:47;101718.55;;;3.57;100.00
61697;BME280;47610;52.252;20.922;2023-02-15T12:29:55;101713.15;;;3.61;100.00
61697;BME280;47610;52.252;20.922;2023-02-15T12:35:08;101707.70;;;3.67;100.00
61697;BME280;47610;52.252;20.922;2023-02-15T12:40:26;101705.00;;;3.65;100.00
61697;BME280;47610;52.252;20.922;2023-02-15T12:45:31;101699.43;;;3.59;100.00
61697;BME280;47610;52.252;20.922;2023-02-15T12:50:41;101681.63;;;3.59;100.00
61697;BME280;47610;52.252;20.922;2023-02-15T12:55:57;101683.47;;;3.69;100.00
61697;BME280;47610;52.252;20.922;2023-02-15T13:01:13;101680.29;;;3.66;100.00
61697;BME280;47610;52.252;20.922;2023-02-15T13:06:22;101674.92;;;3.60;100.00
61697;BME280;47610;52.252;20.922;2023-02-15T13:11:32;101671.10;;;3.58;100.00
61697;BME280;47610;52.252;20.922;2023-02-15T13:16:38;101668.11;;;3.57;100.00
61697;BME280;47610;52.252;20.922;2023-02-15T13:21:50;101658.63;;;3.59;100.00
61697;BME280;47610;52.252;20.922;2023-02-15T13:26:57;101652.31;;;3.62;100.00
61697;BME280;47610;52.252;20.922;2023-02-15T13:32:16;101645.38;;;3.53;100.00
61697;BME280;47610;52.252;20.922;2023-02-15T13:37:42;101641.17;;;3.49;100.00
61697;BME280;47610;52.252;20.922;2023-02-15T13:42:59;101636.18;;;3.43;100.00
61697;BME280;47610;52.252;20.922;2023-02-15T13:48:18;101642.15;;;3.42;100.00
61697;BME280;47610;52.252;20.922;2023-02-15T13:53:46;101635.99;;;3.46;100.00
61697;BME280;47610;52.252;20.922;2023-02-15T13:59:12;101637.31;;;3.48;100.00
61697;BME280;47610;52.252;20.922;2023-02-15T14:04:38;101636.88;;;3.46;100.00
61697;BME280;47610;52.252;20.922;2023-02-15T14:10:00;101633.44;;;3.40;100.00
61697;BME280;47610;52.252;20.922;2023-02-15T14:24:14;101621.43;;;3.26;100.00
61697;BME280;47610;52.252;20.922;2023-02-15T14:29:34;101625.36;;;3.24;100.00
61697;BME280;47610;52.252;20.922;2023-02-15T14:34:50;101618.87;;;3.24;100.00
61697;BME280;47610;52.252;20.922;2023-02-15T14:39:59;101614.66;;;3.17;100.00
61697;BME280;47610;52.252;20.922;2023-02-15T14:45:15;101613.64;;;3.10;100.00
61697;BME280;47610;52.252;20.922;2023-02-15T14:50:39;101614.80;;;3.02;100.00
61697;BME280;47610;52.252;20.922;2023-02-15T14:55:43;101611.01;;;2.96;100.00
61697;BME280;47610;52.252;20.922;2023-02-15T15:00:46;101604.98;;;2.91;100.00
61697;BME280;47610;52.252;20.922;2023-02-15T15:05:54;101597.71;;;2.88;100.00
61697;BME280;47610;52.252;20.922;2023-02-15T15:11:38;101591.77;;;2.83;100.00
61697;BME280;47610;52.252;20.922;2023-02-15T15:16:55;101592.54;;;2.76;100.00
61697;BME280;47610;52.252;20.922;2023-02-15T15:22:04;101580.93;;;2.74;100.00
61697;BME280;47610;52.252;20.922;2023-02-15T15:32:47;101576.36;;;2.73;100.00
61697;BME280;47610;52.252;20.922;2023-02-15T15:38:14;101572.63;;;2.67;100.00
61697;BME280;47610;52.252;20.922;2023-02-15T15:49:05;101571.82;;;2.49;100.00
61697;BME280;47610;52.252;20.922;2023-02-15T15:54:17;101563.84;;;2.46;100.00
61697;BME280;47610;52.252;20.922;2023-02-15T15:59:26;101559.76;;;2.40;100.00
61697;BME280;47610;52.252;20.922;2023-02-15T16:04:34;101562.51;;;2.31;100.00
61697;BME280;47610;52.252;20.922;2023-02-15T16:09:38;101555.14;;;2.23;100.00
61697;BME280;47610;52.252;20.922;2023-02-15T16:14:44;101559.77;;;2.21;100.00
61697;BME280;47610;52.252;20.922;2023-02-15T16:19:48;101558.23;;;2.23;100.00
61697;BME280;47610;52.252;20.922;2023-02-15T16:30:28;101551.71;;;2.26;100.00
61697;BME280;47610;52.252;20.922;2023-02-15T16:44:05;101536.52;;;2.36;100.00
61697;BME280;47610;52.252;20.922;2023-02-15T16:49:20;101535.94;;;2.37;100.00
61697;BME280;47610;52.252;20.922;2023-02-15T16:54:23;101530.02;;;2.38;100.00
61697;BME280;47610;52.252;20.922;2023-02-15T16:59:38;101520.80;;;2.38;100.00
61697;BME280;47610;52.252;20.922;2023-02-15T17:04:43;101520.91;;;2.35;100.00
61697;BME280;47610;52.252;20.922;2023-02-15T17:09:56;101524.91;;;2.30;100.00
61697;BME280;47610;52.252;20.922;2023-02-15T17:15:02;101520.31;;;2.14;100.00
61697;BME280;47610;52.252;20.922;2023-02-15T17:20:16;101513.25;;;2.06;100.00
61697;BME280;47610;52.252;20.922;2023-02-15T17:25:37;101504.67;;;2.01;100.00
61697;BME280;47610;52.252;20.922;2023-02-15T17:30:40;101496.00;;;1.89;100.00
61697;BME280;47610;52.252;20.922;2023-02-15T17:36:05;101490.17;;;1.79;100.00
61697;BME280;47610;52.252;20.922;2023-02-15T17:41:09;101490.84;;;1.75;100.00
61697;BME280;47610;52.252;20.922;2023-02-15T17:46:13;101489.50;;;1.76;100.00
61697;BME280;47610;52.252;20.922;2023-02-15T17:51:20;101479.77;;;1.79;100.00
61697;BME280;47610;52.252;20.922;2023-02-15T17:56:24;101472.35;;;1.77;100.00
61697;BME280;47610;52.252;20.922;2023-02-15T18:01:27;101470.88;;;1.79;100.00
61697;BME280;47610;52.252;20.922;2023-02-15T18:06:33;101466.48;;;1.72;100.00
61697;BME280;47610;52.252;20.922;2023-02-15T18:11:38;101459.80;;;1.64;100.00
61697;BME280;47610;52.252;20.922;2023-02-15T18:16:44;101459.89;;;1.61;100.00
61697;BME280;47610;52.252;20.922;2023-02-15T18:21:50;101457.23;;;1.56;100.00
61697;BME280;47610;52.252;20.922;2023-02-15T18:26:58;101458.12;;;1.53;100.00
61697;BME280;47610;52.252;20.922;2023-02-15T18:32:07;101450.28;;;1.48;100.00
61697;BME280;47610;52.252;20.922;2023-02-15T18:37:17;101447.30;;;1.45;100.00
61697;BME280;47610;52.252;20.922;2023-02-15T18:42:23;101440.23;;;1.47;100.00
61697;BME280;47610;52.252;20.922;2023-02-15T18:47:28;101440.59;;;1.50;100.00
61697;BME280;47610;52.252;20.922;2023-02-15T18:52:30;101439.07;;;1.55;100.00
61697;BME280;47610;52.252;20.922;2023-02-15T19:02:55;101431.47;;;1.55;100.00
61697;BME280;47610;52.252;20.922;2023-02-15T19:08:02;101431.89;;;1.59;100.00
61697;BME280;47610;52.252;20.922;2023-02-15T19:13:10;101427.91;;;1.68;100.00
61697;BME280;47610;52.252;20.922;2023-02-15T19:18:15;101418.43;;;1.72;100.00
61697;BME280;47610;52.252;20.922;2023-02-15T19:23:22;101418.34;;;1.76;100.00
61697;BME280;47610;52.252;20.922;2023-02-15T19:28:31;101418.11;;;1.78;100.00
61697;BME280;47610;52.252;20.922;2023-02-15T19:33:35;101418.32;;;1.78;100.00
61697;BME280;47610;52.252;20.922;2023-02-15T19:38:40;101409.55;;;1.79;100.00
61697;BME280;47610;52.252;20.922;2023-02-15T19:43:48;101406.36;;;1.81;100.00
61697;BME280;47610;52.252;20.922;2023-02-15T19:48:53;101397.96;;;1.84;100.00
61697;BME280;47610;52.252;20.922;2023-02-15T19:54:00;101403.20;;;1.90;100.00
61697;BME280;47610;52.252;20.922;2023-02-15T19:59:04;101397.61;;;1.90;100.00
61697;BME280;47610;52.252;20.922;2023-02-15T20:04:08;101392.23;;;1.88;100.00
61697;BME280;47610;52.252;20.922;2023-02-15T20:09:21;101382.25;;;1.88;100.00
61697;BME280;47610;52.252;20.922;2023-02-15T20:14:26;101384.23;;;1.81;100.00
61697;BME280;47610;52.252;20.922;2023-02-15T20:19:30;101376.41;;;1.73;100.00
61697;BME280;47610;52.252;20.922;2023-02-15T20:24:34;101365.52;;;1.64;100.00
61697;BME280;47610;52.252;20.922;2023-02-15T20:29:36;101359.79;;;1.53;100.00
61697;BME280;47610;52.252;20.922;2023-02-15T20:34:40;101368.44;;;1.45;100.00
61697;BME280;47610;52.252;20.922;2023-02-15T20:39:44;101361.14;;;1.34;100.00
61697;BME280;47610;52.252;20.922;2023-02-15T20:44:48;101354.55;;;1.25;100.00
61697;BME280;47610;52.252;20.922;2023-02-15T20:49:50;101347.95;;;1.17;100.00
61697;BME280;47610;52.252;20.922;2023-02-15T20:54:54;101341.56;;;1.10;100.00
61697;BME280;47610;52.252;20.922;2023-02-15T20:59:59;101340.30;;;1.05;100.00
61697;BME280;47610;52.252;20.922;2023-02-15T21:05:04;101337.09;;;1.02;100.00
61697;BME280;47610;52.252;20.922;2023-02-15T21:10:12;101339.42;;;0.99;100.00
61697;BME280;47610;52.252;20.922;2023-02-15T21:22:28;101322.02;;;0.94;100.00
61697;BME280;47610;52.252;20.922;2023-02-15T21:27:31;101318.85;;;0.89;100.00
61697;BME280;47610;52.252;20.922;2023-02-15T21:32:35;101312.98;;;0.88;100.00
61697;BME280;47610;52.252;20.922;2023-02-15T21:37:41;101314.84;;;0.88;100.00
61697;BME280;47610;52.252;20.922;2023-02-15T21:42:45;101309.96;;;0.88;100.00
61697;BME280;47610;52.252;20.922;2023-02-15T21:47:49;101298.65;;;0.87;100.00
61697;BME280;47610;52.252;20.922;2023-02-15T21:52:52;101285.27;;;0.87;100.00
61697;BME280;47610;52.252;20.922;2023-02-15T21:57:57;101281.55;;;0.86;100.00
61697;BME280;47610;52.252;20.922;2023-02-15T22:03:01;101280.30;;;0.87;100.00
61697;BME280;47610;52.252;20.922;2023-02-15T22:08:13;101277.53;;;0.85;100.00
61697;BME280;47610;52.252;20.922;2023-02-15T22:13:22;101264.58;;;0.83;100.00
61697;BME280;47610;52.252;20.922;2023-02-15T22:18:28;101247.78;;;0.81;100.00
61697;BME280;47610;52.252;20.922;2023-02-15T22:23:33;101239.36;;;0.78;100.00
61697;BME280;47610;52.252;20.922;2023-02-15T22:28:38;101233.80;;;0.75;100.00
61697;BME280;47610;52.252;20.922;2023-02-15T22:33:43;101226.33;;;0.71;100.00
61697;BME280;47610;52.252;20.922;2023-02-15T22:38:47;101222.23;;;0.68;100.00
61697;BME280;47610;52.252;20.922;2023-02-15T22:43:50;101225.16;;;0.64;100.00
61697;BME280;47610;52.252;20.922;2023-02-15T22:48:54;101216.02;;;0.60;100.00
61697;BME280;47610;52.252;20.922;2023-02-15T22:53:59;101210.04;;;0.56;100.00
61697;BME280;47610;52.252;20.922;2023-02-15T22:59:05;101217.52;;;0.54;100.00
61697;BME280;47610;52.252;20.922;2023-02-15T23:04:17;101214.98;;;0.51;100.00
61697;BME280;47610;52.252;20.922;2023-02-15T23:09:22;101210.27;;;0.51;100.00
61697;BME280;47610;52.252;20.922;2023-02-15T23:14:30;101210.45;;;0.51;100.00
61697;BME280;47610;52.252;20.922;2023-02-15T23:19:35;101197.55;;;0.47;100.00
61697;BME280;47610;52.252;20.922;2023-02-15T23:24:40;101191.00;;;0.43;100.00
61697;BME280;47610;52.252;20.922;2023-02-15T23:29:44;101192.17;;;0.36;100.00
61697;BME280;47610;52.252;20.922;2023-02-15T23:42:29;101181.16;;;0.20;100.00
61697;BME280;47610;52.252;20.922;2023-02-15T23:47:35;101173.02;;;0.09;100.00
61697;BME280;47610;52.252;20.922;2023-02-15T23:52:37;101159.58;;;0.01;100.00
61697;BME280;47610;52.252;20.922;2023-02-15T23:57:42;101147.64;;;-0.08;100.00
